createdAt,value
2022-09-13T00:01:35.252Z,5.60
2022-09-13T00:04:02.557Z,6.90
2022-09-13T00:06:29.617Z,5.85
2022-09-13T00:08:56.578Z,5.68
2022-09-13T00:11:25.894Z,5.97
2022-09-13T00:13:53.291Z,5.22
2022-09-13T00:16:23.447Z,7.20
2022-09-13T00:18:50.614Z,5.93
2022-09-13T00:21:19.609Z,7.22
2022-09-13T00:23:49.199Z,8.63
2022-09-13T00:26:24.986Z,4.85
2022-09-13T00:28:58.040Z,7.70
2022-09-13T00:31:27.583Z,4.73
2022-09-13T00:33:55.438Z,6.10
2022-09-13T00:36:22.387Z,6.85
2022-09-13T00:38:49.318Z,7.78
2022-09-13T00:41:18.025Z,3.80
2022-09-13T00:43:45.200Z,4.43
2022-09-13T00:46:49.584Z,4.05
2022-09-13T00:49:24.155Z,4.30
2022-09-13T00:51:59.998Z,4.03
2022-09-13T00:54:32.075Z,5.88
2022-09-13T00:57:02.208Z,4.78
2022-09-13T00:59:37.119Z,6.13
2022-09-13T01:02:04.953Z,5.50
2022-09-13T01:04:34.417Z,3.88
2022-09-13T01:07:08.630Z,3.50
2022-09-13T01:09:41.520Z,4.13
2022-09-13T01:12:15.320Z,7.17
2022-09-13T01:17:09.746Z,7.78
2022-09-13T01:19:37.231Z,3.78
2022-09-13T01:22:22.319Z,5.53
2022-09-13T01:25:07.846Z,2.95
2022-09-13T01:27:55.644Z,3.28
2022-09-13T01:30:37.971Z,4.32
2022-09-13T01:33:46.685Z,4.22
2022-09-13T01:36:32.873Z,5.05
2022-09-13T01:39:06.571Z,4.72
2022-09-13T01:44:12.987Z,4.75
2022-09-13T01:46:53.347Z,7.30
2022-09-13T01:49:26.519Z,3.55
2022-09-13T01:52:18.294Z,5.70
2022-09-13T01:54:49.980Z,3.08
2022-09-13T01:57:24.431Z,3.92
2022-09-13T02:00:01.317Z,2.80
2022-09-13T02:02:33.412Z,3.17
2022-09-13T02:05:05.895Z,3.28
2022-09-13T02:07:43.625Z,3.80
2022-09-13T02:10:17.927Z,3.88
2022-09-13T02:12:48.306Z,2.83
2022-09-13T02:15:41.919Z,5.13
2022-09-13T02:18:09.885Z,3.83
2022-09-13T02:20:41.938Z,5.22
2022-09-13T02:23:30.184Z,6.93
2022-09-13T02:25:59.659Z,3.83
2022-09-13T02:28:35.588Z,3.83
2022-09-13T02:31:07.947Z,4.93
2022-09-13T02:33:42.477Z,5.95
2022-09-13T02:36:17.333Z,5.65
2022-09-13T02:38:55.825Z,5.07
2022-09-13T02:41:35.703Z,5.03
2022-09-13T02:44:16.223Z,6.28
2022-09-13T02:47:05.626Z,4.03
2022-09-13T02:49:56.733Z,4.07
2022-09-13T02:52:26.386Z,4.60
2022-09-13T02:55:16.003Z,5.22
2022-09-13T02:57:49.330Z,5.03
2022-09-13T03:00:16.344Z,3.30
2022-09-13T03:02:45.986Z,3.42
2022-09-13T03:05:13.116Z,3.80
2022-09-13T03:07:40.059Z,3.95
2022-09-13T03:10:11.977Z,3.47
2022-09-13T03:13:05.842Z,6.72
2022-09-13T03:16:26.181Z,4.50
2022-09-13T03:19:15.443Z,3.97
2022-09-13T03:21:55.280Z,8.20
2022-09-13T03:24:48.254Z,4.60
2022-09-13T03:27:21.844Z,4.63
2022-09-13T03:29:58.824Z,5.25
2022-09-13T03:32:35.344Z,3.60
2022-09-13T03:35:05.038Z,4.60
2022-09-13T03:37:54.888Z,3.60
2022-09-13T03:40:33.252Z,3.60
2022-09-13T03:43:27.589Z,5.47
2022-09-13T03:48:24.138Z,5.32
2022-09-13T03:50:51.596Z,5.25
2022-09-13T03:53:30.291Z,4.28
2022-09-13T03:55:57.266Z,5.15
2022-09-13T03:58:26.422Z,5.82
2022-09-13T04:00:54.353Z,5.18
2022-09-13T04:03:21.317Z,8.88
2022-09-13T04:05:48.211Z,2.70
2022-09-13T04:08:15.187Z,3.85
2022-09-13T04:10:42.086Z,4.63
2022-09-13T04:13:09.082Z,5.63
2022-09-13T04:15:36.030Z,4.88
2022-09-13T04:18:02.905Z,4.65
2022-09-13T04:20:29.901Z,3.75
2022-09-13T04:22:57.859Z,4.25
2022-09-13T04:25:25.081Z,4.28
2022-09-13T04:27:56.644Z,6.20
2022-09-13T04:30:23.721Z,3.60
2022-09-13T04:32:50.661Z,4.43
2022-09-13T04:35:19.151Z,4.82
2022-09-13T04:37:46.592Z,5.32
2022-09-13T04:40:14.630Z,5.65
2022-09-13T04:42:43.731Z,3.97
2022-09-13T04:45:11.089Z,4.82
2022-09-13T04:47:38.163Z,4.30
2022-09-13T04:50:05.581Z,5.10
2022-09-13T04:52:32.612Z,4.75
2022-09-13T04:55:01.640Z,5.72
2022-09-13T04:57:29.397Z,5.78
2022-09-13T04:59:56.392Z,5.03
2022-09-13T05:02:23.349Z,4.22
2022-09-13T05:04:50.399Z,4.70
2022-09-13T05:07:17.647Z,5.22
2022-09-13T05:09:44.559Z,5.55
2022-09-13T05:12:11.848Z,5.60
2022-09-13T05:14:38.971Z,7.30
2022-09-13T05:17:05.963Z,4.32
2022-09-13T05:19:32.954Z,6.45
2022-09-13T05:21:59.883Z,6.47
2022-09-13T05:24:26.874Z,7.97
2022-09-13T05:26:54.519Z,6.63
2022-09-13T05:29:21.483Z,7.18
2022-09-13T05:31:48.460Z,13.35
2022-09-13T05:34:17.938Z,8.45
2022-09-13T05:36:44.986Z,6.72
2022-09-13T05:42:05.171Z,7.97
2022-09-13T05:44:32.118Z,4.55
2022-09-13T05:46:58.995Z,6.93
2022-09-13T05:49:25.945Z,7.30
2022-09-13T05:51:52.885Z,5.75
2022-09-13T05:54:19.838Z,6.68
2022-09-13T05:56:46.772Z,5.07
2022-09-13T05:59:16.813Z,7.00
2022-09-13T06:01:43.815Z,9.43
2022-09-13T06:04:12.620Z,7.53
2022-09-13T06:06:39.601Z,15.00
2022-09-13T06:09:09.320Z,8.40
2022-09-13T06:11:36.281Z,8.43
2022-09-13T06:14:04.144Z,6.38
2022-09-13T06:16:32.133Z,9.15
2022-09-13T06:18:59.754Z,5.32
2022-09-13T06:21:29.172Z,6.20
2022-09-13T06:23:56.468Z,5.00
2022-09-13T06:26:25.765Z,5.82
2022-09-13T06:28:54.803Z,7.15
2022-09-13T06:31:24.631Z,6.65
2022-09-13T06:33:57.670Z,5.38
2022-09-13T06:36:24.726Z,8.27
2022-09-13T06:38:51.695Z,8.27
2022-09-13T06:41:24.178Z,9.95
2022-09-13T06:43:59.079Z,8.65
2022-09-13T06:46:28.326Z,7.53
2022-09-13T06:48:55.953Z,6.90
2022-09-13T06:51:24.932Z,5.60
2022-09-13T06:53:53.542Z,5.93
2022-09-13T06:56:23.653Z,6.53
2022-09-13T06:58:52.691Z,12.32
2022-09-13T07:01:22.199Z,9.05
2022-09-13T07:03:51.336Z,6.72
2022-09-13T07:06:22.375Z,8.43
2022-09-13T07:08:51.814Z,11.15
2022-09-13T07:11:21.073Z,7.90
2022-09-13T07:13:56.696Z,7.32
2022-09-13T07:16:29.024Z,7.60
2022-09-13T07:18:58.415Z,7.35
2022-09-13T07:21:26.194Z,6.50
2022-09-13T07:23:55.302Z,8.23
2022-09-13T07:26:23.044Z,9.05
2022-09-13T07:28:53.511Z,7.47
2022-09-13T07:31:23.312Z,8.10
2022-09-13T07:33:58.129Z,10.68
2022-09-13T07:36:26.628Z,7.35
2022-09-13T07:38:53.660Z,7.22
2022-09-13T07:41:22.968Z,7.40
2022-09-13T07:43:51.888Z,10.88
2022-09-13T07:46:23.396Z,6.65
2022-09-13T07:48:53.207Z,11.52
2022-09-13T07:51:22.488Z,8.68
2022-09-13T07:53:55.049Z,9.02
2022-09-13T07:56:27.145Z,7.28
2022-09-13T07:58:57.494Z,9.35
2022-09-13T08:01:26.661Z,6.55
2022-09-13T08:03:58.803Z,10.95
2022-09-13T08:06:27.496Z,6.82
2022-09-13T08:08:55.103Z,7.57
2022-09-13T08:11:43.130Z,12.68
2022-09-13T08:14:13.161Z,8.27
2022-09-13T08:16:40.243Z,9.30
2022-09-13T08:19:08.738Z,9.77
2022-09-13T08:21:38.183Z,12.50
2022-09-13T08:24:07.246Z,9.95
2022-09-13T08:26:36.007Z,12.70
2022-09-13T08:29:05.670Z,10.98
2022-09-13T08:31:33.299Z,10.52
2022-09-13T08:34:00.760Z,11.45
2022-09-13T08:36:29.152Z,12.68
2022-09-13T08:39:00.735Z,14.20
2022-09-13T08:41:45.041Z,10.23
2022-09-13T08:44:30.183Z,13.63
2022-09-13T08:47:26.391Z,15.02
2022-09-13T08:50:11.614Z,14.85
2022-09-13T08:53:18.739Z,9.55
2022-09-13T08:55:58.439Z,10.43
2022-09-13T08:58:44.252Z,15.63
2022-09-13T09:01:21.738Z,11.70
2022-09-13T09:04:21.556Z,10.43
2022-09-13T09:06:48.880Z,8.82
2022-09-13T09:09:20.945Z,12.95
2022-09-13T09:11:54.369Z,9.57
2022-09-13T09:14:38.587Z,11.38
2022-09-13T09:17:13.683Z,10.95
2022-09-13T09:19:55.949Z,10.93
2022-09-13T09:22:29.361Z,9.07
2022-09-13T09:24:57.736Z,12.55
2022-09-13T09:27:24.695Z,12.75
2022-09-13T09:29:54.568Z,10.35
2022-09-13T09:32:36.787Z,7.88
2022-09-13T09:35:15.631Z,8.98
2022-09-13T09:37:46.089Z,7.30
2022-09-13T09:40:17.131Z,6.40
2022-09-13T09:42:46.814Z,12.93
2022-09-13T09:45:29.655Z,8.63
2022-09-13T09:48:01.650Z,10.05
2022-09-13T09:50:36.518Z,10.35
2022-09-13T09:53:14.398Z,12.07
2022-09-13T09:55:57.192Z,10.15
2022-09-13T09:58:42.148Z,7.43
2022-09-13T10:01:22.579Z,6.30
2022-09-13T10:04:12.571Z,10.80
2022-09-13T10:06:44.917Z,8.32
2022-09-13T10:09:19.621Z,8.90
2022-09-13T10:11:49.244Z,11.00
2022-09-13T10:14:29.961Z,9.70
2022-09-13T10:17:15.802Z,14.52
2022-09-13T10:20:02.095Z,10.95
2022-09-13T10:22:31.313Z,10.48
2022-09-13T10:25:14.560Z,11.05
2022-09-13T10:27:51.265Z,8.93
2022-09-13T10:30:40.970Z,10.35
2022-09-13T10:33:25.515Z,9.65
2022-09-13T10:35:55.915Z,8.85
2022-09-13T10:38:40.812Z,8.70
2022-09-13T10:41:20.714Z,17.45
2022-09-13T10:43:49.169Z,13.18
2022-09-13T10:46:23.673Z,10.35
2022-09-13T10:48:57.496Z,13.25
2022-09-13T10:54:10.867Z,11.00
2022-09-13T10:56:38.188Z,10.55
2022-09-13T10:59:24.798Z,9.52
2022-09-13T11:02:11.775Z,11.48
2022-09-13T11:04:47.960Z,11.63
2022-09-13T11:07:14.892Z,18.02
2022-09-13T11:09:46.225Z,16.23
2022-09-13T11:12:25.068Z,17.13
2022-09-13T11:15:04.950Z,17.35
2022-09-13T11:17:50.318Z,15.90
2022-09-13T11:20:31.991Z,14.27
2022-09-13T11:23:20.937Z,15.88
2022-09-13T11:25:53.981Z,14.35
2022-09-13T11:28:41.341Z,16.65
2022-09-13T11:31:11.041Z,14.25
2022-09-13T11:33:43.905Z,12.80
2022-09-13T11:36:17.551Z,14.45
2022-09-13T11:39:05.867Z,17.52
2022-09-13T11:41:41.781Z,13.20
2022-09-13T11:44:29.999Z,11.38
2022-09-13T11:47:13.385Z,9.95
2022-09-13T11:50:00.133Z,13.57
2022-09-13T11:52:32.806Z,11.65
2022-09-13T11:55:15.649Z,10.18
2022-09-13T11:58:04.408Z,8.18
2022-09-13T12:00:53.667Z,8.15
2022-09-13T12:03:21.219Z,7.53
2022-09-13T12:05:53.080Z,12.95
2022-09-13T12:08:25.808Z,7.43
2022-09-13T12:10:57.348Z,9.02
2022-09-13T12:13:31.090Z,6.95
2022-09-13T12:18:39.185Z,5.88
2022-09-13T12:21:12.136Z,8.18
2022-09-13T12:24:00.216Z,9.48
2022-09-13T12:26:37.595Z,7.75
2022-09-13T12:29:43.010Z,8.10
2022-09-13T12:32:10.618Z,6.38
2022-09-13T12:34:55.182Z,6.80
2022-09-13T12:37:24.956Z,6.13
2022-09-13T12:40:34.152Z,8.23
2022-09-13T12:43:03.716Z,7.47
2022-09-13T12:45:33.774Z,14.20
2022-09-13T12:48:26.012Z,7.57
2022-09-13T12:51:08.440Z,9.35
2022-09-13T12:54:15.543Z,7.25
2022-09-13T12:56:57.064Z,8.77
2022-09-13T12:59:52.378Z,14.52
2022-09-13T13:02:54.769Z,7.47
2022-09-13T13:05:30.902Z,8.70
2022-09-13T13:08:08.555Z,9.43
2022-09-13T13:10:38.286Z,6.43
2022-09-13T13:13:14.950Z,8.23
2022-09-13T13:15:47.842Z,7.15
2022-09-13T13:18:28.519Z,11.32
2022-09-13T13:20:55.383Z,9.65
2022-09-13T13:23:29.998Z,5.75
2022-09-13T13:26:26.377Z,9.73
2022-09-13T13:29:13.163Z,11.48
2022-09-13T13:32:02.435Z,10.90
2022-09-13T13:34:50.055Z,7.53
2022-09-13T13:37:19.723Z,10.27
2022-09-13T13:39:48.395Z,8.32
2022-09-13T13:42:31.745Z,11.88
2022-09-13T13:45:14.938Z,8.25
2022-09-13T13:47:53.424Z,7.67
2022-09-13T13:50:22.491Z,6.45
2022-09-13T13:52:56.442Z,18.92
2022-09-13T13:55:28.697Z,7.28
2022-09-13T13:58:05.895Z,6.35
2022-09-13T14:00:35.687Z,10.52
2022-09-13T14:03:02.599Z,10.95
2022-09-13T14:05:57.327Z,8.38
2022-09-13T14:09:02.406Z,9.23
2022-09-13T14:11:47.884Z,8.35
2022-09-13T14:14:33.412Z,12.05
2022-09-13T14:17:36.962Z,13.02
2022-09-13T14:20:21.953Z,10.68
2022-09-13T14:22:48.962Z,8.23
2022-09-13T14:25:18.699Z,8.40
2022-09-13T14:27:48.114Z,10.75
2022-09-13T14:30:29.841Z,10.38
2022-09-13T14:32:58.541Z,10.85
2022-09-13T14:35:28.888Z,11.43
2022-09-13T14:38:10.027Z,10.30
2022-09-13T14:40:38.498Z,8.02
2022-09-13T14:43:18.883Z,10.40
2022-09-13T14:45:50.012Z,17.98
2022-09-13T14:48:23.135Z,10.95
2022-09-13T14:51:21.687Z,15.98
2022-09-13T14:53:53.844Z,11.77
2022-09-13T14:56:40.408Z,22.77
2022-09-13T14:59:19.626Z,9.55
2022-09-13T15:01:46.666Z,11.60
2022-09-13T15:04:17.492Z,10.40
2022-09-13T15:06:44.631Z,12.93
2022-09-13T15:09:14.596Z,10.25
2022-09-13T15:11:53.733Z,10.45
2022-09-13T15:14:31.276Z,16.15
2022-09-13T15:17:14.091Z,14.00
2022-09-13T15:19:49.685Z,10.57
2022-09-13T15:22:27.956Z,11.00
2022-09-13T15:24:57.771Z,12.95
2022-09-13T15:27:27.977Z,14.38
2022-09-13T15:30:03.987Z,13.18
2022-09-13T15:32:40.667Z,12.70
2022-09-13T15:35:30.548Z,15.48
2022-09-13T15:38:02.776Z,13.23
2022-09-13T15:40:40.844Z,15.40
2022-09-13T15:43:07.779Z,17.90
2022-09-13T15:45:34.652Z,13.90
2022-09-13T15:48:01.747Z,16.80
2022-09-13T15:50:33.688Z,14.35
2022-09-13T15:53:01.587Z,12.30
2022-09-13T15:55:30.911Z,10.75
2022-09-13T15:57:57.956Z,14.25
2022-09-13T16:00:27.774Z,14.68
2022-09-13T16:02:54.778Z,14.38
2022-09-13T16:05:22.119Z,14.73
2022-09-13T16:07:49.649Z,12.75
2022-09-13T16:10:20.118Z,14.25
2022-09-13T16:12:47.570Z,13.73
2022-09-13T16:15:14.631Z,11.85
2022-09-13T16:17:41.776Z,17.27
2022-09-13T16:20:12.866Z,12.40
2022-09-13T16:22:39.847Z,13.75
2022-09-13T16:25:07.367Z,11.20
2022-09-13T16:27:34.383Z,11.68
2022-09-13T16:30:01.727Z,12.40
2022-09-13T16:32:28.764Z,11.32
2022-09-13T16:34:55.724Z,11.68
2022-09-13T16:37:22.777Z,12.88
2022-09-13T16:39:49.730Z,11.40
2022-09-13T16:42:17.709Z,13.50
2022-09-13T16:44:44.966Z,10.43
2022-09-13T16:47:12.060Z,12.88
2022-09-13T16:49:39.050Z,11.85
2022-09-13T16:52:06.326Z,10.35
2022-09-13T16:54:35.055Z,10.13
2022-09-13T16:57:04.073Z,11.40
2022-09-13T16:59:32.423Z,11.93
2022-09-13T17:01:59.546Z,13.52
2022-09-13T17:04:26.519Z,11.32
2022-09-13T17:06:53.507Z,12.75
2022-09-13T17:09:22.453Z,10.30
2022-09-13T17:11:49.873Z,15.48
2022-09-13T17:14:17.823Z,13.15
2022-09-13T17:16:53.000Z,12.77
2022-09-13T17:19:23.559Z,10.43
2022-09-13T17:21:51.999Z,13.27
2022-09-13T17:24:19.263Z,12.82
2022-09-13T17:26:46.909Z,10.40
2022-09-13T17:29:15.254Z,14.98
2022-09-13T17:31:43.707Z,13.57
2022-09-13T17:34:11.910Z,11.93
2022-09-13T17:36:40.462Z,12.00
2022-09-13T17:39:07.785Z,8.40
2022-09-13T17:41:35.286Z,9.00
2022-09-13T17:44:02.423Z,8.55
2022-09-13T17:46:30.271Z,7.60
2022-09-13T17:48:59.196Z,8.10
2022-09-13T17:51:31.655Z,10.68
2022-09-13T17:54:03.611Z,10.70
2022-09-13T17:56:40.419Z,15.55
2022-09-13T17:59:13.227Z,15.20
2022-09-13T18:01:42.789Z,7.57
2022-09-13T18:04:10.567Z,11.48
2022-09-13T18:06:42.775Z,8.48
2022-09-13T18:09:10.707Z,10.18
2022-09-13T18:11:37.900Z,9.80
2022-09-13T18:14:05.492Z,9.50
2022-09-13T18:16:32.512Z,9.05
2022-09-13T18:19:01.030Z,8.70
2022-09-13T18:21:29.305Z,7.25
2022-09-13T18:23:58.707Z,7.72
2022-09-13T18:26:27.984Z,13.70
2022-09-13T18:28:57.965Z,15.77
2022-09-13T18:31:25.516Z,8.68
2022-09-13T18:34:00.642Z,11.05
2022-09-13T18:36:29.484Z,13.27
2022-09-13T18:38:57.712Z,11.00
2022-09-13T18:41:27.130Z,9.35
2022-09-13T18:43:56.450Z,8.98
2022-09-13T18:46:26.962Z,8.63
2022-09-13T18:48:57.309Z,9.85
2022-09-13T18:51:33.351Z,7.78
2022-09-13T18:54:00.958Z,10.30
2022-09-13T18:56:28.896Z,12.43
2022-09-13T18:58:56.746Z,7.20
2022-09-13T19:01:27.146Z,7.65
2022-09-13T19:04:10.270Z,8.13
2022-09-13T19:06:39.966Z,8.35
2022-09-13T19:09:08.333Z,6.78
2022-09-13T19:11:48.835Z,5.90
2022-09-13T19:14:16.975Z,9.18
2022-09-13T19:16:44.014Z,9.02
2022-09-13T19:19:11.053Z,19.50
2022-09-13T19:21:37.946Z,7.57
2022-09-13T19:24:10.818Z,9.18
2022-09-13T19:26:40.252Z,12.43
2022-09-13T19:29:13.125Z,7.22
2022-09-13T19:31:42.976Z,7.20
2022-09-13T19:34:11.226Z,9.02
2022-09-13T19:36:39.625Z,11.43
2022-09-13T19:39:08.110Z,8.25
2022-09-13T19:41:36.705Z,10.40
2022-09-13T19:44:05.445Z,7.35
2022-09-13T19:46:35.277Z,7.38
2022-09-13T19:49:03.118Z,7.30
2022-09-13T19:51:32.659Z,9.10
2022-09-13T19:54:00.812Z,7.70
2022-09-13T19:56:46.339Z,9.38
2022-09-13T19:59:15.950Z,7.10
2022-09-13T20:01:45.091Z,8.25
2022-09-13T20:04:14.982Z,10.15
2022-09-13T20:06:44.863Z,7.00
2022-09-13T20:09:14.045Z,8.10
2022-09-13T20:11:45.429Z,6.72
2022-09-13T20:14:14.525Z,7.20
2022-09-13T20:16:42.809Z,6.20
2022-09-13T20:19:39.843Z,7.82
2022-09-13T20:22:06.555Z,8.27
2022-09-13T20:24:33.466Z,9.27
2022-09-13T20:27:00.470Z,11.48
2022-09-13T20:29:27.362Z,10.15
2022-09-13T20:31:55.626Z,8.32
2022-09-13T20:34:22.573Z,7.50
2022-09-13T20:36:49.687Z,7.72
2022-09-13T20:39:16.852Z,9.48
2022-09-13T20:41:44.303Z,7.45
2022-09-13T20:44:12.088Z,7.20
2022-09-13T20:46:40.535Z,9.18
2022-09-13T20:49:09.190Z,7.65
2022-09-13T20:51:37.290Z,7.88
2022-09-13T20:54:05.376Z,8.30
2022-09-13T20:56:34.586Z,8.23
2022-09-13T20:59:02.717Z,8.48
2022-09-13T21:01:31.885Z,7.97
2022-09-13T21:03:59.657Z,8.30
2022-09-13T21:06:29.524Z,7.90
2022-09-13T21:08:59.932Z,8.38
2022-09-13T21:11:35.176Z,8.82
2022-09-13T21:14:08.629Z,8.73
2022-09-13T21:16:39.376Z,7.20
2022-09-13T21:19:07.449Z,8.40
2022-09-13T21:21:36.916Z,6.90
2022-09-13T21:24:05.913Z,8.48
2022-09-13T21:26:33.195Z,9.13
2022-09-13T21:29:00.797Z,8.82
2022-09-13T21:31:30.993Z,12.25
2022-09-13T21:34:00.200Z,9.98
2022-09-13T21:36:27.899Z,7.10
2022-09-13T21:38:56.011Z,10.55
2022-09-13T21:41:25.095Z,8.00
2022-09-13T21:43:52.478Z,8.93
2022-09-13T21:46:25.548Z,9.43
2022-09-13T21:48:56.220Z,9.60
2022-09-13T21:51:30.945Z,11.85
2022-09-13T21:53:59.421Z,10.32
2022-09-13T21:56:29.510Z,12.07
2022-09-13T21:59:02.140Z,12.32
2022-09-13T22:01:32.364Z,16.20
2022-09-13T22:04:00.735Z,13.00
2022-09-13T22:06:33.598Z,14.07
2022-09-13T22:09:04.183Z,12.60
2022-09-13T22:11:38.681Z,12.63
2022-09-13T22:14:07.799Z,17.23
2022-09-13T22:16:38.746Z,15.90
2022-09-13T22:19:12.755Z,17.67
2022-09-13T22:21:46.127Z,16.13
2022-09-13T22:24:16.872Z,15.45
2022-09-13T22:26:44.744Z,18.05
2022-09-13T22:29:12.717Z,18.05
2022-09-13T22:31:41.893Z,16.38
2022-09-13T22:34:12.525Z,20.08
2022-09-13T22:36:39.627Z,18.50
2022-09-13T22:39:06.803Z,17.85
2022-09-13T22:41:34.851Z,19.88
2022-09-13T22:44:02.726Z,21.90
2022-09-13T22:46:32.898Z,21.75
2022-09-13T22:49:00.502Z,25.15
2022-09-13T22:51:28.009Z,27.70
2022-09-13T22:53:55.707Z,30.20
2022-09-13T22:56:29.210Z,31.95
2022-09-13T22:59:20.601Z,31.42
2022-09-13T23:01:48.062Z,39.90
2022-09-13T23:04:15.688Z,46.15
2022-09-13T23:06:46.221Z,38.88
2022-09-13T23:09:16.760Z,38.17
2022-09-13T23:11:44.494Z,36.38
2022-09-13T23:14:13.992Z,44.22
2022-09-13T23:16:50.424Z,44.47
2022-09-13T23:19:19.702Z,39.97
2022-09-13T23:21:46.768Z,39.13
2022-09-13T23:24:16.393Z,37.15
2022-09-13T23:26:44.380Z,35.22
2022-09-13T23:29:15.866Z,40.05
2022-09-13T23:31:43.564Z,38.83
2022-09-13T23:34:12.467Z,40.28
2022-09-13T23:36:42.388Z,37.40
2022-09-13T23:39:16.729Z,39.50
2022-09-13T23:41:45.232Z,40.15
2022-09-13T23:44:12.151Z,36.72
2022-09-13T23:46:39.154Z,39.92
2022-09-13T23:49:06.509Z,39.13
2022-09-13T23:51:33.523Z,39.55
2022-09-13T23:54:01.224Z,37.65
2022-09-13T23:56:30.853Z,40.05
2022-09-13T23:59:00.664Z,36.03
